Time;durP1;ratioP1;P1;durP2;ratioP2;P2;SDS_P1;SDS_P2;PMS_P1;PMS_P2;Temp;Humidity;BMP_temperature;BMP_pressure;BME280_temperature;BME280_humidity;BME280_pressure;Samples;Min_cycle;Max_cycle;Signal;HPM_P1;HPM_P2
2021/12/04 00:00:34;;;;;;;5.23;2.60;;;2.70;97.30;;;;;;4981687;28;20417;-81
2021/12/04 00:02:59;;;;;;;11.40;2.10;;;2.80;97.30;;;;;;4999204;28;20413;-83
2021/12/04 00:05:25;;;;;;;3.70;2.50;;;2.80;97.30;;;;;;4981398;28;20492;-81
2021/12/04 00:07:51;;;;;;;4.60;2.33;;;2.80;97.30;;;;;;4999008;28;20459;-80
2021/12/04 00:10:18;;;;;;;4.57;2.10;;;2.80;97.30;;;;;;4980954;28;20197;-82
2021/12/04 00:12:44;;;;;;;4.87;2.40;;;2.80;97.30;;;;;;4981657;28;20212;-81
2021/12/04 00:15:10;;;;;;;6.10;2.30;;;2.80;97.30;;;;;;4981969;28;20410;-82
2021/12/04 00:17:36;;;;;;;4.50;2.40;;;2.90;97.30;;;;;;4980298;28;20864;-83
2021/12/04 00:20:04;;;;;;;2.20;2.00;;;2.90;97.30;;;;;;4981528;28;20409;-81
2021/12/04 00:22:30;;;;;;;6.60;2.30;;;2.90;97.30;;;;;;4981629;28;20487;-81
2021/12/04 00:24:55;;;;;;;3.33;2.30;;;2.90;97.30;;;;;;4980021;28;20428;-80
2021/12/04 00:27:21;;;;;;;3.67;2.00;;;2.90;97.30;;;;;;4981194;28;20202;-82
2021/12/04 00:29:47;;;;;;;7.53;2.20;;;3.00;97.30;;;;;;4982346;28;20178;-81
2021/12/04 00:32:25;;;;;;;5.60;2.13;;;3.00;97.30;;;;;;4980573;28;20201;-81
2021/12/04 00:34:56;;;;;;;8.40;2.00;;;3.00;97.30;;;;;;4980521;28;20666;-81
2021/12/04 00:37:52;;;;;;;6.93;2.70;;;3.00;97.30;;;;;;4981210;28;20437;-81
2021/12/04 00:51:24;;;;;;;4.37;2.10;;;3.00;97.30;;;;;;4999052;28;20527;-82
2021/12/04 00:53:54;;;;;;;2.50;1.80;;;3.00;97.30;;;;;;4980819;28;20428;-82
2021/12/04 00:56:20;;;;;;;6.33;2.37;;;3.10;97.30;;;;;;4980375;28;20966;-81
2021/12/04 00:58:45;;;;;;;3.90;2.17;;;3.10;97.30;;;;;;4980010;28;20413;-82
2021/12/04 01:01:11;;;;;;;3.90;2.50;;;3.00;97.30;;;;;;4980396;28;20425;-81
2021/12/04 01:03:37;;;;;;;2.63;2.47;;;3.00;97.30;;;;;;4980757;28;20181;-81
2021/12/04 01:06:05;;;;;;;2.93;2.07;;;3.10;97.30;;;;;;4997769;28;20198;-82
2021/12/04 01:08:31;;;;;;;4.63;1.80;;;3.00;97.30;;;;;;4980311;28;20178;-80
2021/12/04 01:10:57;;;;;;;4.47;2.57;;;3.00;97.30;;;;;;4980274;28;20428;-82
2021/12/04 01:13:22;;;;;;;6.03;2.27;;;3.10;97.30;;;;;;4980179;28;20189;-81
2021/12/04 01:15:48;;;;;;;2.33;1.83;;;3.00;97.30;;;;;;4980181;28;20202;-81
2021/12/04 01:18:13;;;;;;;2.23;1.93;;;3.00;97.30;;;;;;4979993;28;20189;-81
2021/12/04 01:20:39;;;;;;;6.37;2.40;;;3.10;97.30;;;;;;4979585;28;20189;-81
2021/12/04 01:23:05;;;;;;;5.10;2.33;;;3.10;97.30;;;;;;4979765;28;20178;-80
2021/12/04 01:25:31;;;;;;;2.57;2.20;;;3.10;97.30;;;;;;4997141;28;20184;-82
2021/12/04 01:27:57;;;;;;;3.23;2.00;;;3.10;97.30;;;;;;4980125;28;20515;-82
2021/12/04 01:30:22;;;;;;;7.87;2.43;;;3.10;97.30;;;;;;4979282;28;20184;-81
2021/12/04 01:32:48;;;;;;;3.40;2.00;;;3.10;97.30;;;;;;4978623;28;20209;-81
2021/12/04 01:35:14;;;;;;;1.97;1.90;;;3.10;97.30;;;;;;4979271;28;20212;-81
2021/12/04 01:37:39;;;;;;;6.00;2.20;;;3.10;97.30;;;;;;4979484;28;20198;-82
2021/12/04 01:40:05;;;;;;;3.20;2.00;;;3.10;97.30;;;;;;4978943;28;20178;-81
2021/12/04 01:42:35;;;;;;;3.93;2.23;;;3.10;97.30;;;;;;4979197;28;20182;-81
2021/12/04 01:45:01;;;;;;;3.53;1.93;;;3.10;97.30;;;;;;4981155;28;20425;-81
2021/12/04 01:47:27;;;;;;;2.73;1.80;;;3.10;97.30;;;;;;4981082;28;20471;-82
2021/12/04 01:49:54;;;;;;;10.53;4.17;;;3.10;97.30;;;;;;4981490;28;20421;-81
2021/12/04 01:52:20;;;;;;;2.00;1.90;;;3.10;97.30;;;;;;4979705;28;20511;-80
2021/12/04 01:54:48;;;;;;;2.03;1.73;;;3.10;97.30;;;;;;4967512;28;20418;-80
2021/12/04 01:57:15;;;;;;;2.30;1.87;;;3.10;97.30;;;;;;4955239;28;20445;-82
2021/12/04 01:59:41;;;;;;;4.77;2.60;;;3.10;97.30;;;;;;4972885;28;20424;-79
2021/12/04 02:02:07;;;;;;;4.63;2.20;;;3.10;97.30;;;;;;4956451;28;20834;-81
2021/12/04 02:04:32;;;;;;;3.27;2.10;;;3.10;97.30;;;;;;4954743;28;20429;-80
2021/12/04 02:07:03;;;;;;;3.30;2.10;;;3.10;97.30;;;;;;4956679;28;20294;-81
2021/12/04 02:09:29;;;;;;;4.73;2.10;;;3.10;97.30;;;;;;4955706;28;20186;-80
2021/12/04 02:11:54;;;;;;;3.43;2.30;;;3.10;97.30;;;;;;4956337;28;20827;-80
2021/12/04 02:14:20;;;;;;;12.47;2.10;;;3.10;97.30;;;;;;4972910;28;20420;-80
2021/12/04 02:16:46;;;;;;;3.00;2.03;;;3.10;97.30;;;;;;4956212;28;20194;-80
2021/12/04 02:19:14;;;;;;;3.30;2.20;;;3.10;97.30;;;;;;4955948;28;20182;-80
2021/12/04 02:21:39;;;;;;;3.20;1.80;;;3.10;97.30;;;;;;4973973;28;20755;-81
2021/12/04 02:24:05;;;;;;;3.03;2.30;;;3.10;97.30;;;;;;4962286;28;20427;-80
2021/12/04 02:26:31;;;;;;;7.20;2.20;;;3.10;97.30;;;;;;4974429;28;20202;-79
2021/12/04 02:28:57;;;;;;;2.93;2.40;;;3.10;97.30;;;;;;4973947;28;20250;-80
2021/12/04 02:31:24;;;;;;;4.23;2.30;;;3.10;97.30;;;;;;4974763;28;20453;-80
2021/12/04 02:33:50;;;;;;;3.40;1.90;;;3.00;97.30;;;;;;4974507;28;20454;-80
2021/12/04 02:36:16;;;;;;;4.37;2.27;;;3.00;97.30;;;;;;4974328;28;21022;-80
2021/12/04 02:38:44;;;;;;;6.00;2.27;;;3.00;97.30;;;;;;4975025;28;20413;-79
2021/12/04 02:41:09;;;;;;;5.87;2.33;;;3.10;97.30;;;;;;4974608;28;20280;-81
2021/12/04 02:43:35;;;;;;;5.40;2.37;;;3.10;97.30;;;;;;4978245;28;20417;-80
2021/12/04 02:46:01;;;;;;;3.30;2.23;;;3.10;97.30;;;;;;4974217;28;20707;-80
2021/12/04 02:48:28;;;;;;;2.57;1.90;;;3.10;97.30;;;;;;4991832;28;20655;-80
2021/12/04 02:50:54;;;;;;;4.00;2.10;;;3.10;97.30;;;;;;4974002;28;20488;-81
2021/12/04 02:53:19;;;;;;;3.43;1.97;;;3.10;97.30;;;;;;4973606;28;20599;-80
2021/12/04 02:55:46;;;;;;;4.60;2.73;;;3.10;97.30;;;;;;4974353;28;20441;-81
2021/12/04 02:58:14;;;;;;;3.30;2.13;;;3.10;97.30;;;;;;4978256;28;20223;-80
2021/12/04 03:00:46;;;;;;;6.27;2.40;;;3.10;97.30;;;;;;4993862;28;20448;-81
2021/12/04 03:03:12;;;;;;;8.80;2.80;;;3.00;97.30;;;;;;4994352;28;20857;-80
2021/12/04 03:05:38;;;;;;;2.80;2.00;;;3.00;97.30;;;;;;4994544;28;20454;-80
2021/12/04 03:08:06;;;;;;;4.40;2.30;;;3.00;97.30;;;;;;4994539;28;20180;-80
2021/12/04 03:10:32;;;;;;;6.47;2.50;;;3.00;97.30;;;;;;4994698;28;20213;-81
2021/12/04 03:12:57;;;;;;;3.40;1.90;;;3.00;97.30;;;;;;4995533;28;20537;-80
2021/12/04 03:15:26;;;;;;;3.10;2.33;;;2.90;97.30;;;;;;4998214;28;20174;-84
2021/12/04 03:17:52;;;;;;;5.30;2.10;;;2.90;97.30;;;;;;5016635;28;20177;-81
2021/12/04 03:20:18;;;;;;;4.60;2.20;;;2.80;97.30;;;;;;4999112;28;20416;-81
2021/12/04 03:22:46;;;;;;;3.20;2.37;;;2.80;97.30;;;;;;5001961;28;20188;-81
2021/12/04 03:25:16;;;;;;;3.63;2.23;;;2.80;97.30;;;;;;5000503;28;20833;-81
2021/12/04 03:27:45;;;;;;;6.73;1.70;;;2.80;97.30;;;;;;5000778;28;20871;-81
2021/12/04 03:30:23;;;;;;;3.57;2.13;;;2.80;97.30;;;;;;5017035;28;21005;-81
2021/12/04 03:35:14;;;;;;;2.93;2.10;;;2.80;97.30;;;;;;5001980;28;20475;-81
2021/12/04 03:41:02;;;;;;;3.00;2.40;;;2.80;97.30;;;;;;5018938;28;20458;-81
2021/12/04 03:43:29;;;;;;;6.50;2.10;;;2.70;97.30;;;;;;5000350;28;20457;-81
2021/12/04 03:46:01;;;;;;;4.10;2.40;;;2.80;97.30;;;;;;5000707;28;20428;-81
2021/12/04 03:51:05;;;;;;;6.53;2.17;;;2.80;97.30;;;;;;5018205;28;20407;-81
2021/12/04 03:53:30;;;;;;;5.40;2.47;;;2.80;97.30;;;;;;5000901;28;20412;-82
2021/12/04 03:55:56;;;;;;;3.90;2.17;;;2.80;97.30;;;;;;5017172;28;20507;-82
2021/12/04 03:58:22;;;;;;;6.03;2.70;;;2.70;97.30;;;;;;5000148;28;20172;-81
2021/12/04 04:00:48;;;;;;;3.90;2.97;;;2.70;97.30;;;;;;4999876;28;20177;-81
2021/12/04 04:03:14;;;;;;;2.70;2.13;;;2.70;97.30;;;;;;5000807;28;20483;-81
2021/12/04 04:05:40;;;;;;;4.03;2.60;;;2.70;97.30;;;;;;5016346;28;20181;-80
2021/12/04 04:08:06;;;;;;;5.33;2.90;;;2.70;97.30;;;;;;5018693;28;20409;-81
2021/12/04 04:10:32;;;;;;;4.07;2.10;;;2.60;97.30;;;;;;4999881;28;20192;-83
2021/12/04 04:12:57;;;;;;;3.93;2.50;;;2.50;97.30;;;;;;5017733;28;20460;-83
2021/12/04 04:15:24;;;;;;;6.93;3.60;;;2.50;97.30;;;;;;4999968;28;20347;-80
2021/12/04 04:17:50;;;;;;;3.20;2.20;;;2.50;97.30;;;;;;5000538;28;20177;-86
2021/12/04 04:20:18;;;;;;;7.43;3.50;;;2.40;97.30;;;;;;4999765;28;20424;-82
2021/12/04 04:22:46;;;;;;;7.60;3.10;;;2.30;97.30;;;;;;4999421;28;20801;-84
2021/12/04 04:25:13;;;;;;;3.97;2.93;;;2.30;97.30;;;;;;4999881;28;20431;-84
2021/12/04 04:27:40;;;;;;;6.63;3.20;;;2.20;97.30;;;;;;4999101;28;20446;-83
2021/12/04 04:30:11;;;;;;;7.67;4.00;;;2.20;97.30;;;;;;5016442;28;20420;-82
2021/12/04 04:32:37;;;;;;;5.80;3.47;;;2.10;97.30;;;;;;4998353;28;20448;-82
2021/12/04 04:35:09;;;;;;;6.77;3.47;;;2.10;97.30;;;;;;4998419;28;20430;-82
2021/12/04 04:37:45;;;;;;;3.67;2.50;;;2.00;97.30;;;;;;5016250;28;20217;-84
2021/12/04 04:59:29;;;;;;;4.57;3.17;;;1.50;97.30;;;;;;4997326;28;20436;-83
2021/12/04 05:02:17;;;;;;;4.97;3.07;;;1.50;97.30;;;;;;4978096;28;20401;-83
2021/12/04 05:10:22;;;;;;;8.10;3.07;;;1.40;97.30;;;;;;4993716;28;20440;-84
2021/12/04 05:20:51;;;;;;;6.40;3.40;;;1.30;97.30;;;;;;4994311;28;20459;-82
2021/12/04 05:23:17;;;;;;;8.73;4.57;;;1.30;97.30;;;;;;4976251;28;20756;-84
2021/12/04 05:25:43;;;;;;;11.47;4.77;;;1.30;97.30;;;;;;4977443;28;20421;-83
2021/12/04 05:28:09;;;;;;;10.97;4.50;;;1.30;97.30;;;;;;4977024;28;20772;-83
2021/12/04 05:30:36;;;;;;;7.40;4.23;;;1.30;97.30;;;;;;4976908;28;20181;-83
2021/12/04 05:33:02;;;;;;;11.53;5.20;;;1.30;97.30;;;;;;4976071;28;20456;-84
2021/12/04 05:35:28;;;;;;;10.80;4.93;;;1.30;97.30;;;;;;4976781;28;20908;-82
2021/12/04 05:37:53;;;;;;;9.53;4.43;;;1.30;97.30;;;;;;4977320;28;20452;-83
2021/12/04 05:40:20;;;;;;;8.20;4.63;;;1.30;97.30;;;;;;4975692;28;20510;-82
2021/12/04 05:42:46;;;;;;;11.30;4.97;;;1.20;97.30;;;;;;4976243;28;20264;-83
2021/12/04 05:45:19;;;;;;;12.20;5.27;;;1.20;97.30;;;;;;4975663;28;20412;-82
2021/12/04 05:47:52;;;;;;;8.50;5.03;;;1.20;97.30;;;;;;4975790;28;20469;-83
2021/12/04 05:50:37;;;;;;;11.20;5.90;;;1.20;97.30;;;;;;4975793;28;20435;-83
2021/12/04 05:55:55;;;;;;;11.97;5.10;;;1.20;97.30;;;;;;4992722;28;20599;-82
2021/12/04 05:58:31;;;;;;;11.63;4.57;;;1.10;97.30;;;;;;4975063;28;20439;-84
2021/12/04 06:01:03;;;;;;;11.13;5.67;;;1.10;97.30;;;;;;4975010;28;20470;-83
2021/12/04 06:03:29;;;;;;;10.40;4.90;;;1.10;97.30;;;;;;4975032;28;20914;-83
2021/12/04 06:05:56;;;;;;;9.57;5.00;;;1.10;97.30;;;;;;4975087;28;20448;-84
2021/12/04 06:08:21;;;;;;;15.10;5.83;;;1.10;97.30;;;;;;4974707;28;20413;-83
2021/12/04 06:10:48;;;;;;;11.60;5.73;;;1.10;97.30;;;;;;4974591;28;20431;-83
2021/12/04 06:13:14;;;;;;;12.33;5.53;;;1.00;97.30;;;;;;4992118;28;20200;-82
2021/12/04 06:15:40;;;;;;;11.93;5.37;;;1.10;97.30;;;;;;4974520;28;20420;-83
2021/12/04 06:18:08;;;;;;;13.27;6.63;;;1.10;97.30;;;;;;4974474;28;20407;-83
2021/12/04 06:23:22;;;;;;;11.13;5.53;;;1.10;97.30;;;;;;4992152;28;20767;-82
2021/12/04 06:25:48;;;;;;;14.70;5.70;;;1.10;97.30;;;;;;4974424;28;20443;-82
2021/12/04 06:28:14;;;;;;;12.40;6.57;;;1.10;97.30;;;;;;4974565;28;20972;-83
2021/12/04 06:30:41;;;;;;;12.20;5.53;;;1.10;97.30;;;;;;4974289;28;20417;-83
2021/12/04 06:33:09;;;;;;;12.33;6.73;;;1.10;97.30;;;;;;4974599;28;20473;-83
2021/12/04 06:35:39;;;;;;;13.50;6.13;;;1.10;97.30;;;;;;4974712;28;20413;-83
2021/12/04 06:38:05;;;;;;;12.90;5.90;;;1.10;97.30;;;;;;4975181;28;20430;-83
2021/12/04 06:40:30;;;;;;;16.33;6.23;;;1.10;97.30;;;;;;4974469;28;20452;-82
2021/12/04 06:42:58;;;;;;;11.07;5.97;;;1.10;97.30;;;;;;4974426;28;20461;-82
2021/12/04 06:45:26;;;;;;;12.00;5.57;;;1.20;97.30;;;;;;4975525;28;20273;-82
2021/12/04 06:48:17;;;;;;;11.87;6.40;;;1.20;97.30;;;;;;4974526;28;20437;-82
2021/12/04 06:53:57;;;;;;;15.90;6.13;;;1.20;97.30;;;;;;4993844;28;20503;-83
2021/12/04 06:56:02;;;;;;;16.30;7.30;;;1.20;97.30;;;;;;4985386;28;20448;-83
2021/12/04 06:58:29;;;;;;;20.70;7.10;;;1.20;97.30;;;;;;4979968;28;20412;-82
2021/12/04 07:00:55;;;;;;;14.70;7.37;;;1.20;97.30;;;;;;4979950;28;20504;-83
2021/12/04 07:03:21;;;;;;;14.43;6.20;;;1.20;97.30;;;;;;4980573;28;20425;-82
2021/12/04 07:05:47;;;;;;;17.67;6.93;;;1.20;97.30;;;;;;4980391;28;20444;-82
2021/12/04 07:08:13;;;;;;;16.37;7.53;;;1.30;97.30;;;;;;4998196;28;20492;-82
2021/12/04 07:10:39;;;;;;;12.97;6.33;;;1.30;97.30;;;;;;4980221;28;20448;-82
2021/12/04 07:13:06;;;;;;;14.40;6.67;;;1.30;97.30;;;;;;4996083;28;20554;-83
2021/12/04 07:15:32;;;;;;;17.50;6.90;;;1.30;97.30;;;;;;4979862;28;20419;-82
2021/12/04 07:18:02;;;;;;;17.60;7.80;;;1.30;97.30;;;;;;4980220;28;20789;-82
2021/12/04 07:20:29;;;;;;;14.60;6.60;;;1.30;97.30;;;;;;4981252;28;20405;-83
2021/12/04 07:22:55;;;;;;;22.73;6.83;;;1.30;97.30;;;;;;4980465;28;20422;-82
2021/12/04 07:25:21;;;;;;;17.80;7.23;;;1.30;97.30;;;;;;4980913;28;20467;-82
2021/12/04 07:27:48;;;;;;;14.40;6.40;;;1.30;97.30;;;;;;4980752;28;20448;-82
2021/12/04 07:30:14;;;;;;;13.57;6.30;;;1.30;97.30;;;;;;4979514;28;20217;-82
2021/12/04 07:32:40;;;;;;;13.87;5.83;;;1.30;97.30;;;;;;4979507;28;20452;-82
2021/12/04 07:35:06;;;;;;;17.13;6.30;;;1.30;97.30;;;;;;4980272;28;20489;-81
2021/12/04 07:37:32;;;;;;;22.43;7.63;;;1.30;97.30;;;;;;4979522;28;20198;-82
2021/12/04 07:39:58;;;;;;;18.90;6.70;;;1.30;97.30;;;;;;4940799;28;1110029;-81
2021/12/04 07:42:23;;;;;;;16.93;7.00;;;1.30;97.30;;;;;;4981233;28;20174;-82
2021/12/04 07:44:49;;;;;;;17.20;6.87;;;1.30;97.30;;;;;;4980223;28;20256;-82
2021/12/04 07:47:15;;;;;;;23.30;5.90;;;1.30;97.30;;;;;;4980570;28;20205;-82
2021/12/04 07:49:41;;;;;;;20.60;8.27;;;1.30;97.30;;;;;;4981507;28;20417;-81
2021/12/04 07:52:08;;;;;;;22.40;6.10;;;1.40;97.30;;;;;;4981936;28;20628;-82
2021/12/04 07:54:34;;;;;;;17.10;6.70;;;1.40;97.30;;;;;;4981871;28;20420;-82
2021/12/04 07:57:00;;;;;;;16.30;6.80;;;1.30;97.30;;;;;;4981896;28;20443;-83
2021/12/04 07:59:26;;;;;;;23.10;7.10;;;1.40;97.30;;;;;;4998626;28;20424;-82
2021/12/04 08:01:52;;;;;;;15.23;6.77;;;1.40;97.30;;;;;;4982330;28;20181;-82
2021/12/04 08:04:19;;;;;;;17.23;6.87;;;1.40;97.30;;;;;;4981606;28;20193;-82
2021/12/04 08:06:44;;;;;;;13.40;6.00;;;1.40;97.30;;;;;;4980897;28;20212;-82
2021/12/04 08:09:10;;;;;;;16.33;7.50;;;1.40;97.30;;;;;;4981429;28;20919;-83
2021/12/04 08:11:36;;;;;;;13.63;6.50;;;1.40;97.30;;;;;;4981931;28;20293;-82
2021/12/04 08:14:01;;;;;;;17.43;7.73;;;1.50;97.30;;;;;;4980966;28;20184;-81
2021/12/04 08:16:27;;;;;;;15.50;6.50;;;1.50;97.30;;;;;;4982090;28;20208;-82
2021/12/04 08:18:53;;;;;;;18.17;7.00;;;1.50;97.30;;;;;;4999337;28;20200;-82
2021/12/04 08:21:21;;;;;;;17.27;7.17;;;1.60;97.30;;;;;;4981749;28;20651;-82
2021/12/04 08:23:47;;;;;;;17.67;7.30;;;1.60;97.30;;;;;;4981861;28;20413;-82
2021/12/04 08:26:13;;;;;;;16.60;6.37;;;1.60;97.30;;;;;;4980721;28;20502;-82
2021/12/04 08:28:40;;;;;;;13.83;6.67;;;1.60;97.30;;;;;;4981759;28;20479;-82
2021/12/04 08:31:05;;;;;;;17.70;7.03;;;1.70;97.30;;;;;;4982129;28;20887;-81
2021/12/04 08:33:31;;;;;;;18.73;7.67;;;1.70;97.30;;;;;;4980888;28;20460;-82
2021/12/04 08:35:56;;;;;;;14.53;6.60;;;1.70;97.30;;;;;;4981216;28;20208;-82
2021/12/04 08:38:22;;;;;;;14.93;7.10;;;1.70;97.30;;;;;;4981379;28;20630;-82
2021/12/04 08:40:48;;;;;;;14.43;6.53;;;1.70;97.30;;;;;;4977504;28;20238;-81
2021/12/04 08:43:14;;;;;;;16.43;7.10;;;1.70;97.30;;;;;;4978375;28;20634;-82
2021/12/04 08:45:44;;;;;;;14.47;7.57;;;1.70;97.30;;;;;;4978047;28;20214;-83
2021/12/04 08:48:12;;;;;;;22.57;7.70;;;1.80;97.30;;;;;;4978863;28;20414;-82
2021/12/04 08:50:40;;;;;;;16.10;7.60;;;1.80;97.30;;;;;;4977545;28;20432;-83
2021/12/04 08:53:08;;;;;;;25.20;8.00;;;1.80;97.30;;;;;;4978538;28;20531;-82
2021/12/04 08:55:38;;;;;;;13.50;6.40;;;1.80;97.30;;;;;;4976159;28;20430;-82
2021/12/04 08:58:07;;;;;;;19.83;7.10;;;1.90;97.30;;;;;;4978101;28;20406;-82
2021/12/04 09:00:41;;;;;;;14.93;6.40;;;1.90;97.30;;;;;;4979307;28;20492;-82
2021/12/04 09:03:08;;;;;;;18.33;7.83;;;1.90;97.30;;;;;;4980465;28;20442;-82
2021/12/04 09:05:36;;;;;;;19.80;7.50;;;2.00;97.30;;;;;;4976904;28;20426;-82
2021/12/04 09:08:04;;;;;;;11.40;5.83;;;2.00;97.30;;;;;;4977494;28;20425;-81
2021/12/04 09:10:30;;;;;;;15.70;7.10;;;2.00;97.30;;;;;;4976656;28;20421;-81
2021/12/04 09:12:56;;;;;;;14.77;6.80;;;2.00;97.30;;;;;;4975876;28;21049;-81
2021/12/04 09:15:25;;;;;;;17.73;7.10;;;2.00;97.30;;;;;;4976835;28;20221;-81
2021/12/04 09:17:50;;;;;;;13.93;7.07;;;2.00;97.30;;;;;;4976344;28;20511;-82
2021/12/04 09:20:16;;;;;;;12.83;5.90;;;2.00;97.30;;;;;;4979070;28;20521;-82
2021/12/04 09:22:46;;;;;;;16.87;7.07;;;2.00;97.30;;;;;;4979054;28;20265;-82
2021/12/04 09:25:19;;;;;;;11.67;6.30;;;2.00;97.30;;;;;;4979261;28;20433;-82
2021/12/04 09:27:58;;;;;;;14.80;7.03;;;2.00;97.30;;;;;;4980342;28;20525;-82
2021/12/04 10:00:11;;;;;;;19.93;7.10;;;2.30;97.30;;;;;;4996850;28;20436;-82
2021/12/04 10:02:56;;;;;;;13.30;6.47;;;2.30;97.30;;;;;;4997859;28;20397;-82
2021/12/04 10:05:46;;;;;;;15.30;6.40;;;2.40;97.30;;;;;;4980304;28;20413;-81
2021/12/04 10:11:32;;;;;;;12.57;6.50;;;2.40;97.30;;;;;;4997118;28;20424;-82
2021/12/04 10:33:30;;;;;;;15.17;5.87;;;2.80;97.30;;;;;;5001355;28;20548;-82
2021/12/04 10:36:03;;;;;;;9.83;5.53;;;2.80;97.30;;;;;;4981109;28;21061;-80
2021/12/04 10:38:32;;;;;;;11.43;5.73;;;2.80;97.30;;;;;;4978840;28;20786;-81
2021/12/04 10:40:58;;;;;;;10.50;5.77;;;2.90;97.30;;;;;;4994150;28;20543;-81
2021/12/04 10:43:28;;;;;;;11.37;5.77;;;2.90;97.30;;;;;;4994523;28;20431;-80
2021/12/04 10:46:01;;;;;;;13.53;5.67;;;2.90;97.30;;;;;;4994367;28;20452;-80
2021/12/04 10:48:31;;;;;;;11.03;5.20;;;3.00;97.30;;;;;;4994362;28;20423;-80
2021/12/04 10:53:47;;;;;;;13.10;5.60;;;3.10;97.30;;;;;;4996314;28;20463;-81
2021/12/04 10:56:27;;;;;;;12.67;6.53;;;3.10;97.30;;;;;;4994521;28;20440;-80
2021/12/04 11:24:51;;;;;;;13.73;5.67;;;3.40;97.30;;;;;;4951505;23;20423;-79
2021/12/04 11:27:26;;;;;;;9.80;6.20;;;3.40;97.30;;;;;;4966419;28;20972;-80
2021/12/04 11:43:12;;;;;;;9.73;6.10;;;3.70;97.30;;;;;;4958980;28;20482;-81
2021/12/04 11:48:35;;;;;;;10.83;5.80;;;3.70;97.30;;;;;;4959107;28;20785;-80
2021/12/04 11:51:02;;;;;;;10.63;5.50;;;3.70;97.30;;;;;;4957178;29;20415;-80
2021/12/04 11:53:31;;;;;;;8.80;4.73;;;3.70;97.30;;;;;;4957304;29;20449;-80
2021/12/04 11:55:57;;;;;;;11.40;5.20;;;3.70;97.30;;;;;;4959177;28;20443;-80
2021/12/04 11:58:25;;;;;;;8.23;4.50;;;3.70;97.30;;;;;;4957271;29;20419;-80
2021/12/04 12:00:54;;;;;;;11.13;6.03;;;3.70;97.30;;;;;;4957165;29;20187;-79
2021/12/04 12:03:24;;;;;;;11.30;5.30;;;3.80;97.30;;;;;;4957325;29;20430;-81
2021/12/04 12:06:03;;;;;;;8.27;4.87;;;3.80;97.30;;;;;;4957751;28;20442;-81
2021/12/04 12:08:42;;;;;;;8.43;4.90;;;3.80;97.30;;;;;;4956678;29;20411;-80
2021/12/04 12:11:10;;;;;;;22.30;7.67;;;3.80;97.30;;;;;;4957479;29;20951;-80
2021/12/04 12:13:36;;;;;;;9.77;5.90;;;3.90;97.30;;;;;;4958144;28;20458;-79
2021/12/04 12:16:13;;;;;;;11.57;5.47;;;3.90;97.30;;;;;;4972730;28;20450;-80
2021/12/04 12:18:56;;;;;;;8.50;5.40;;;3.80;97.30;;;;;;4977800;28;20221;-80
2021/12/04 12:21:29;;;;;;;9.17;5.33;;;3.80;97.30;;;;;;4976274;28;20428;-79
2021/12/04 12:32:55;;;;;;;16.43;5.57;;;3.90;97.30;;;;;;4951552;28;20457;-79
2021/12/04 12:38:17;;;;;;;11.73;5.27;;;3.90;97.30;;;;;;4956125;29;20812;-80
2021/12/04 12:40:58;;;;;;;10.00;5.60;;;3.90;97.30;;;;;;4965456;28;20422;-81
2021/12/04 12:43:31;;;;;;;9.63;5.20;;;3.90;97.30;;;;;;4963242;28;20426;-80
2021/12/04 12:45:58;;;;;;;10.30;5.53;;;3.90;97.30;;;;;;4973002;28;20444;-79
2021/12/04 12:48:24;;;;;;;8.90;5.10;;;4.00;97.30;;;;;;4976947;28;20417;-79
2021/12/04 12:50:52;;;;;;;10.33;5.10;;;4.10;97.30;;;;;;4975667;28;20815;-80
2021/12/04 12:53:26;;;;;;;9.17;4.93;;;4.40;97.30;;;;;;4959584;28;20194;-80
2021/12/04 12:56:03;;;;;;;10.40;5.10;;;4.80;97.30;;;;;;4961573;28;20433;-80
2021/12/04 12:58:37;;;;;;;9.00;4.63;;;5.20;97.30;;;;;;4960543;28;20932;-80
2021/12/04 13:12:48;;;;;;;8.03;4.53;;;5.30;97.30;;;;;;4960304;29;20446;-81
2021/12/04 13:15:30;;;;;;;8.33;5.00;;;5.20;97.30;;;;;;4959397;29;20850;-81
2021/12/04 13:18:21;;;;;;;6.90;4.40;;;5.10;97.30;;;;;;4960014;29;20767;-80
2021/12/04 13:20:48;;;;;;;8.23;4.40;;;5.20;97.30;;;;;;4955040;29;20847;-80
2021/12/04 13:23:17;;;;;;;9.50;4.73;;;5.10;97.30;;;;;;4955487;29;20423;-80
2021/12/04 13:26:03;;;;;;;9.53;5.20;;;5.00;97.30;;;;;;4955357;28;20469;-81
2021/12/04 13:28:31;;;;;;;8.33;4.70;;;4.80;97.30;;;;;;4957550;29;20936;-82
2021/12/04 13:31:00;;;;;;;6.47;4.93;;;4.70;97.30;;;;;;4957873;29;20437;-82
2021/12/04 13:33:31;;;;;;;9.40;4.67;;;4.50;97.30;;;;;;4956675;29;20465;-82
2021/12/04 13:35:56;;;;;;;9.40;4.87;;;4.50;97.30;;;;;;4956726;28;20529;-80
2021/12/04 13:38:24;;;;;;;8.07;4.53;;;4.40;97.30;;;;;;4956947;29;20423;-82
2021/12/04 13:40:53;;;;;;;8.00;4.50;;;4.30;97.30;;;;;;4974986;28;20548;-81
2021/12/04 13:43:19;;;;;;;7.03;4.57;;;4.30;97.30;;;;;;4962510;28;20425;-82
2021/12/04 13:45:45;;;;;;;9.90;4.90;;;4.20;97.30;;;;;;4957204;28;20415;-81
2021/12/04 13:48:12;;;;;;;8.70;4.40;;;4.20;97.30;;;;;;4960247;29;20415;-81
2021/12/04 13:53:15;;;;;;;9.20;4.80;;;4.10;97.30;;;;;;4978461;28;20461;-80
2021/12/04 13:55:47;;;;;;;7.63;4.43;;;4.00;97.30;;;;;;4974868;28;20414;-81
2021/12/04 13:58:13;;;;;;;7.63;5.03;;;3.90;97.30;;;;;;4961822;28;20403;-80
2021/12/04 14:00:39;;;;;;;6.20;4.30;;;3.80;97.30;;;;;;4955204;29;20494;-80
2021/12/04 14:03:04;;;;;;;7.67;4.90;;;3.70;97.30;;;;;;4955482;29;20183;-81
2021/12/04 14:05:30;;;;;;;7.70;4.47;;;3.70;97.30;;;;;;4955612;28;20629;-81
2021/12/04 14:08:02;;;;;;;5.87;4.10;;;3.70;97.30;;;;;;4950773;29;20429;-79
2021/12/04 14:10:34;;;;;;;14.40;4.83;;;3.70;97.30;;;;;;4937433;29;20412;-80
2021/12/04 14:13:02;;;;;;;6.63;4.00;;;3.50;97.30;;;;;;4935623;29;20502;-81
2021/12/04 14:15:28;;;;;;;12.10;4.90;;;3.50;97.30;;;;;;4936092;29;20801;-80
2021/12/04 14:18:06;;;;;;;9.47;5.07;;;3.50;97.30;;;;;;4936034;29;20447;-80
2021/12/04 14:20:33;;;;;;;10.20;5.70;;;3.40;97.30;;;;;;4937613;29;20518;-80
2021/12/04 14:23:00;;;;;;;10.23;4.40;;;3.40;97.30;;;;;;4954704;29;20408;-81
2021/12/04 14:25:27;;;;;;;11.37;5.60;;;3.40;97.30;;;;;;4954633;29;20470;-80
2021/12/04 14:27:54;;;;;;;8.80;4.80;;;3.40;97.30;;;;;;4954659;29;20427;-80
2021/12/04 14:30:27;;;;;;;10.87;4.87;;;3.30;97.30;;;;;;4949844;29;20435;-81
2021/12/04 14:32:56;;;;;;;10.23;5.17;;;3.30;97.30;;;;;;4964881;28;20465;-79
2021/12/04 14:35:26;;;;;;;11.37;5.50;;;3.20;97.30;;;;;;4956315;28;20438;-80
2021/12/04 14:37:55;;;;;;;9.90;5.33;;;3.20;97.30;;;;;;4955869;29;20399;-79
2021/12/04 14:40:36;;;;;;;8.80;5.60;;;3.20;97.30;;;;;;4954917;28;20427;-79
2021/12/04 14:43:04;;;;;;;12.33;8.13;;;3.10;97.30;;;;;;4955986;29;20454;-80
2021/12/04 14:45:33;;;;;;;15.23;7.20;;;3.10;97.30;;;;;;4955425;28;21038;-80
2021/12/04 14:48:08;;;;;;;19.70;9.37;;;3.00;97.30;;;;;;4954983;29;20431;-79
2021/12/04 14:50:37;;;;;;;11.10;5.90;;;3.00;97.30;;;;;;4956251;29;20424;-80
2021/12/04 14:53:05;;;;;;;12.60;5.67;;;2.90;97.30;;;;;;4954898;29;20477;-80
2021/12/04 14:55:35;;;;;;;11.00;5.33;;;2.90;97.30;;;;;;4955048;28;20437;-79
2021/12/04 14:58:05;;;;;;;15.10;5.87;;;2.90;97.30;;;;;;4955138;29;20419;-80
2021/12/04 15:00:37;;;;;;;9.00;5.10;;;2.80;97.30;;;;;;4954433;29;20411;-79
2021/12/04 15:03:09;;;;;;;11.30;5.80;;;2.80;97.30;;;;;;4955652;29;20422;-80
2021/12/04 15:05:47;;;;;;;9.50;5.17;;;2.80;97.30;;;;;;4954992;28;20439;-81
2021/12/04 15:08:18;;;;;;;10.47;5.07;;;2.70;97.30;;;;;;4953681;29;20779;-80
2021/12/04 15:10:55;;;;;;;11.73;5.30;;;2.70;97.30;;;;;;4951259;29;20419;-80
2021/12/04 15:13:24;;;;;;;12.60;5.67;;;2.70;97.30;;;;;;4952254;29;20831;-80
2021/12/04 15:15:57;;;;;;;7.40;4.23;;;2.70;97.30;;;;;;4953160;28;20462;-81
2021/12/04 15:18:25;;;;;;;6.57;4.07;;;2.70;97.30;;;;;;4956221;29;20793;-80
2021/12/04 15:20:57;;;;;;;9.00;6.50;;;2.70;97.30;;;;;;4955068;29;20482;-80
2021/12/04 15:23:29;;;;;;;9.37;4.20;;;2.60;97.30;;;;;;4955254;29;20426;-80
2021/12/04 15:26:00;;;;;;;8.70;5.73;;;2.60;97.30;;;;;;4957942;28;20473;-80
2021/12/04 15:28:28;;;;;;;15.50;5.33;;;2.60;97.30;;;;;;4956039;29;20430;-79
2021/12/04 15:30:56;;;;;;;8.80;4.70;;;2.60;97.30;;;;;;4957132;29;20419;-79
2021/12/04 15:33:23;;;;;;;12.80;5.57;;;2.60;97.30;;;;;;4957580;29;20490;-79
2021/12/04 15:35:50;;;;;;;12.13;6.70;;;2.50;97.30;;;;;;4958116;28;20446;-80
2021/12/04 15:38:28;;;;;;;15.70;6.80;;;2.50;97.30;;;;;;4957418;29;20453;-80
2021/12/04 15:43:32;;;;;;;15.33;7.80;;;2.50;97.30;;;;;;4959348;29;20509;-80
2021/12/04 15:46:21;;;;;;;11.13;5.87;;;2.50;97.30;;;;;;4957418;28;20438;-80
2021/12/04 15:54:01;;;;;;;11.20;7.00;;;2.40;97.30;;;;;;4958525;28;20869;-80
2021/12/04 15:56:32;;;;;;;12.53;6.70;;;2.40;97.30;;;;;;4974399;28;20515;-80
2021/12/04 15:58:58;;;;;;;12.80;6.50;;;2.40;97.30;;;;;;4977293;28;20932;-81
2021/12/04 16:01:29;;;;;;;15.40;6.27;;;2.40;97.30;;;;;;4970297;28;20438;-78
2021/12/04 16:03:56;;;;;;;9.10;6.07;;;2.40;97.30;;;;;;4956419;29;20430;-79
2021/12/04 16:06:21;;;;;;;13.87;6.77;;;2.40;97.30;;;;;;4958388;28;20497;-81
2021/12/04 16:08:47;;;;;;;29.00;12.50;;;2.40;97.30;;;;;;4958205;28;20818;-80
2021/12/04 16:11:15;;;;;;;34.13;12.77;;;2.40;97.30;;;;;;4957249;29;20179;-80